Time;durP1;ratioP1;P1;durP2;ratioP2;P2;SDS_P1;SDS_P2;PMS_P1;PMS_P2;Temp;Humidity;BMP_temperature;BMP_pressure;BME280_temperature;BME280_humidity;BME280_pressure;Samples;Min_cycle;Max_cycle;Signal;HPM_P1;HPM_P2
2022/01/21 00:01:36;;;;;;;81.70;37.50;;;;;;;0.64;52.42;99954.95;117297;1186;21867;-52
2022/01/21 00:04:06;;;;;;;76.80;35.30;;;;;;;0.66;52.15;99952.39;118881;1183;23445;-60
2022/01/21 00:06:34;;;;;;;78.50;35.20;;;;;;;0.65;52.36;99949.09;117294;1182;21855;-52
2022/01/21 00:09:03;;;;;;;67.90;32.10;;;;;;;0.65;52.59;99958.06;117255;1185;23541;-52
2022/01/21 00:11:33;;;;;;;72.00;33.00;;;;;;;0.64;52.37;99960.81;117345;1182;22622;-53
2022/01/21 00:14:01;;;;;;;74.80;35.30;;;;;;;0.65;52.49;99961.00;117236;1186;21889;-52
2022/01/21 00:16:29;;;;;;;69.90;32.30;;;;;;;0.66;52.36;99948.26;117317;1183;22002;-60
2022/01/21 00:19:07;;;;;;;57.00;29.40;;;;;;;0.68;52.34;99943.80;117099;1186;22873;-59
2022/01/21 00:30:20;;;;;;;111.40;45.00;;;;;;;0.74;52.43;99942.89;116770;1185;23621;-51
2022/01/21 00:32:50;;;;;;;117.20;47.90;;;;;;;0.74;52.27;99938.40;116944;1185;22734;-51
2022/01/21 00:35:19;;;;;;;69.30;29.30;;;;;;;0.73;52.39;99936.98;116817;1186;24153;-59
2022/01/21 00:37:47;;;;;;;36.20;18.40;;;;;;;0.74;52.08;99934.24;116944;1186;23457;-51
2022/01/21 00:40:20;;;;;;;28.60;13.80;;;;;;;0.74;52.31;99932.01;116639;1191;22928;-59
2022/01/21 00:43:05;;;;;;;22.90;13.00;;;;;;;0.73;52.48;99930.42;116975;1186;22951;-51
2022/01/21 00:45:34;;;;;;;66.50;30.70;;;;;;;0.73;52.43;99936.30;116935;1186;21864;-59
2022/01/21 00:48:04;;;;;;;50.70;21.50;;;;;;;0.71;52.41;99936.45;116765;1188;23452;-59
2022/01/21 00:50:33;;;;;;;39.00;18.20;;;;;;;0.69;52.40;99938.95;116726;1189;23590;-51
2022/01/21 00:53:02;;;;;;;29.20;15.20;;;;;;;0.69;52.16;99940.35;116776;1186;23919;-59
2022/01/21 00:55:30;;;;;;;24.30;12.70;;;;;;;0.70;52.62;99938.48;116911;1187;21859;-59
2022/01/21 00:57:58;;;;;;;20.50;11.50;;;;;;;0.77;52.54;99936.90;117088;1178;24176;-54
2022/01/21 01:00:27;;;;;;;20.20;11.70;;;;;;;0.82;52.34;99932.17;117093;1186;21868;-59
2022/01/21 01:02:56;;;;;;;20.60;11.60;;;;;;;0.83;52.45;99939.61;117156;1186;23550;-59
2022/01/21 01:05:24;;;;;;;23.40;11.90;;;;;;;0.82;52.25;99944.45;117085;1182;23487;-59
2022/01/21 01:07:55;;;;;;;20.30;11.40;;;;;;;0.82;52.29;99943.74;117079;1186;21914;-50
2022/01/21 01:10:40;;;;;;;22.60;11.40;;;;;;;0.82;52.37;99944.43;117156;1186;21872;-59
2022/01/21 01:21:31;;;;;;;21.10;11.50;;;;;;;0.68;52.19;99936.38;117115;1185;23478;-60
2022/01/21 01:29:24;;;;;;;21.90;12.00;;;;;;;0.59;52.41;99953.11;117132;1186;21875;-52
2022/01/21 01:31:52;;;;;;;18.60;11.50;;;;;;;0.57;52.45;99952.21;117133;1182;22911;-60
2022/01/21 01:34:21;;;;;;;19.80;11.30;;;;;;;0.58;52.37;99948.77;117145;1179;23641;-60
2022/01/21 01:36:49;;;;;;;19.70;11.50;;;;;;;0.59;52.35;99951.39;117147;1186;24165;-60
2022/01/21 01:39:37;;;;;;;20.90;11.80;;;;;;;0.61;52.68;99951.77;117047;1181;24709;-51
2022/01/21 01:50:11;;;;;;;22.10;12.20;;;;;;;0.80;52.85;99962.88;117060;1180;23554;-52
2022/01/21 01:52:40;;;;;;;20.50;11.50;;;;;;;0.85;52.76;99961.26;117152;1186;23456;-52
2022/01/21 01:55:10;;;;;;;22.60;11.20;;;;;;;0.86;52.38;99960.76;117188;1185;21869;-51
2022/01/21 01:57:38;;;;;;;24.40;12.60;;;;;;;0.83;52.50;99961.20;117193;1186;21896;-59
2022/01/21 02:00:07;;;;;;;21.30;13.10;;;;;;;0.77;52.19;99958.66;117161;1182;23484;-60
2022/01/21 02:02:35;;;;;;;20.20;12.10;;;;;;;0.69;52.42;99957.80;117151;1185;23513;-52
2022/01/21 02:05:05;;;;;;;22.00;12.80;;;;;;;0.58;52.43;99966.56;117162;1185;23496;-59
2022/01/21 02:07:33;;;;;;;23.30;12.10;;;;;;;0.55;52.53;99963.55;117191;1183;22002;-60
2022/01/21 02:10:03;;;;;;;25.10;13.70;;;;;;;0.53;52.70;99960.60;117213;1185;23490;-51
2022/01/21 02:12:31;;;;;;;24.20;12.90;;;;;;;0.56;52.82;99965.83;117003;1182;21854;-52
2022/01/21 02:15:01;;;;;;;19.50;11.60;;;;;;;0.61;52.89;99973.36;117072;1182;22932;-60
2022/01/21 02:22:48;;;;;;;22.60;13.00;;;;;;;0.83;52.98;99993.69;117161;1182;23539;-60
2022/01/21 02:25:19;;;;;;;25.50;13.60;;;;;;;0.87;53.06;99995.50;117197;1182;22928;-59
2022/01/21 02:27:49;;;;;;;18.70;10.80;;;;;;;0.91;52.75;100006.11;117152;1186;23477;-59
2022/01/21 02:30:19;;;;;;;23.30;13.90;;;;;;;0.95;53.14;100012.75;116975;1179;21840;-59
2022/01/21 02:32:49;;;;;;;25.80;13.90;;;;;;;0.98;52.91;100008.49;117224;1178;21867;-60
2022/01/21 02:35:17;;;;;;;21.40;12.60;;;;;;;1.01;52.85;100010.80;117242;1186;21860;-53
2022/01/21 02:37:46;;;;;;;41.50;14.70;;;;;;;1.05;53.03;100012.98;117234;1186;21865;-52
2022/01/21 02:40:15;;;;;;;22.10;12.70;;;;;;;1.19;52.83;100019.11;117149;1186;22054;-51
2022/01/21 02:42:43;;;;;;;23.60;13.00;;;;;;;1.29;52.79;100025.05;117176;1178;21899;-52
2022/01/21 02:45:14;;;;;;;18.50;10.50;;;;;;;1.37;52.60;100027.77;117198;1186;23311;-60
2022/01/21 02:47:43;;;;;;;17.30;9.50;;;;;;;1.47;52.89;100034.02;117233;1185;22683;-60
2022/01/21 02:50:12;;;;;;;15.20;9.30;;;;;;;1.56;53.01;100039.02;117335;1185;21911;-52
2022/01/21 02:52:53;;;;;;;15.50;8.70;;;;;;;1.59;52.68;100041.34;117265;1184;22728;-53
2022/01/21 02:55:23;;;;;;;16.50;8.70;;;;;;;1.64;52.88;100044.88;117238;1185;24226;-57
2022/01/21 02:57:51;;;;;;;12.20;6.90;;;;;;;1.70;52.91;100046.20;117097;1185;22796;-52
2022/01/21 03:00:20;;;;;;;10.00;5.70;;;;;;;1.76;52.75;100044.94;117232;1181;23580;-52
2022/01/21 03:02:48;;;;;;;9.50;5.40;;;;;;;1.85;52.79;100038.50;117142;1186;23449;-53
2022/01/21 03:05:18;;;;;;;9.90;5.00;;;;;;;1.92;52.95;100036.73;117091;1186;23561;-53
2022/01/21 03:07:47;;;;;;;8.40;4.50;;;;;;;1.99;52.88;100040.66;117195;1178;24293;-60
2022/01/21 03:10:15;;;;;;;7.80;4.60;;;;;;;2.03;52.70;100042.63;117266;1183;22652;-60
2022/01/21 03:12:44;;;;;;;10.40;5.30;;;;;;;2.05;52.82;100042.84;117302;1181;23553;-52
2022/01/21 03:15:12;;;;;;;9.70;4.50;;;;;;;2.06;52.62;100051.52;117156;1178;23451;-53
2022/01/21 03:17:40;;;;;;;11.20;5.50;;;;;;;2.05;52.52;100055.13;117091;1186;21858;-60
2022/01/21 03:20:09;;;;;;;9.40;5.40;;;;;;;2.05;52.55;100058.23;117303;1181;22531;-53
2022/01/21 03:22:37;;;;;;;12.10;7.10;;;;;;;2.01;52.39;100060.06;117263;1182;23542;-53
2022/01/21 03:25:07;;;;;;;11.40;6.20;;;;;;;1.98;52.39;100061.40;117207;1178;21852;-53
2022/01/21 03:27:35;;;;;;;10.60;5.90;;;;;;;1.93;52.60;100066.34;117196;1182;23647;-60
2022/01/21 03:30:05;;;;;;;14.30;6.90;;;;;;;1.88;52.57;100068.50;117258;1182;23415;-53
2022/01/21 03:32:34;;;;;;;9.70;5.40;;;;;;;1.85;52.57;100072.60;117231;1182;23474;-60
2022/01/21 03:35:03;;;;;;;11.10;6.20;;;;;;;1.83;52.63;100065.63;117241;1182;21981;-53
2022/01/21 03:37:32;;;;;;;13.10;6.80;;;;;;;1.80;52.69;100057.63;117432;1181;23352;-60
2022/01/21 03:40:00;;;;;;;11.50;6.40;;;;;;;1.77;52.60;100058.61;117228;1186;21908;-53
2022/01/21 03:42:28;;;;;;;9.60;5.40;;;;;;;1.74;52.55;100061.51;117398;1176;23473;-54
2022/01/21 03:44:57;;;;;;;10.90;4.90;;;;;;;1.72;52.71;100065.10;117254;1185;22714;-59
2022/01/21 03:47:25;;;;;;;7.90;4.80;;;;;;;1.71;52.41;100074.77;117280;1183;23455;-58
2022/01/21 03:49:56;;;;;;;9.20;4.90;;;;;;;1.72;52.68;100079.45;117310;1182;23452;-60
2022/01/21 03:52:25;;;;;;;11.20;5.00;;;;;;;1.73;52.45;100073.59;117303;1185;22880;-52
2022/01/21 03:54:53;;;;;;;8.20;5.20;;;;;;;1.74;52.58;100080.19;117325;1179;22926;-60
2022/01/21 03:57:21;;;;;;;7.60;4.70;;;;;;;1.75;52.77;100087.83;117482;1185;21858;-53
2022/01/21 03:59:49;;;;;;;7.90;4.40;;;;;;;1.77;52.55;100089.41;117339;1183;23477;-59
2022/01/21 04:02:18;;;;;;;9.00;4.20;;;;;;;1.78;52.73;100087.69;117325;1176;23493;-53
2022/01/21 04:04:46;;;;;;;7.90;3.60;;;;;;;1.68;52.93;100104.45;117259;1182;23475;-54
2022/01/21 04:07:14;;;;;;;8.60;3.50;;;;;;;1.64;52.81;100105.42;117316;1182;23587;-60
2022/01/21 04:09:42;;;;;;;6.80;3.40;;;;;;;1.63;53.06;100100.56;117242;1186;23452;-60
2022/01/21 04:12:11;;;;;;;6.90;3.40;;;;;;;1.63;53.08;100105.93;117241;1181;23496;-59
2022/01/21 04:14:41;;;;;;;8.10;3.40;;;;;;;1.65;52.90;100109.41;117304;1176;21865;-59
2022/01/21 04:17:10;;;;;;;6.20;3.10;;;;;;;1.62;52.94;100113.69;117305;1182;23718;-58
2022/01/21 04:19:39;;;;;;;4.80;2.40;;;;;;;1.62;53.06;100120.25;117326;1182;23452;-60
2022/01/21 04:22:07;;;;;;;6.30;2.80;;;;;;;1.68;52.98;100121.08;117305;1185;21990;-59
2022/01/21 04:24:37;;;;;;;8.10;2.60;;;;;;;1.75;52.89;100127.27;117272;1185;23452;-59
2022/01/21 04:27:12;;;;;;;8.80;3.10;;;;;;;1.76;52.71;100133.52;116995;1186;21857;-59
2022/01/21 04:29:40;;;;;;;5.10;2.60;;;;;;;1.80;52.73;100142.23;117169;1178;21863;-60
2022/01/21 04:32:09;;;;;;;6.70;3.00;;;;;;;1.81;52.67;100143.98;117312;1183;22606;-59
2022/01/21 04:34:38;;;;;;;7.90;3.20;;;;;;;1.81;52.82;100143.98;117114;1186;22571;-60
2022/01/21 04:37:10;;;;;;;4.80;2.00;;;;;;;1.78;52.82;100146.70;117270;1179;21885;-59
2022/01/21 04:39:49;;;;;;;5.30;2.10;;;;;;;1.77;52.85;100151.16;117120;1185;24006;-59
2022/01/21 04:47:34;;;;;;;4.60;2.10;;;;;;;1.76;52.70;100161.70;117320;1185;23502;-58
2022/01/21 04:50:08;;;;;;;4.20;1.80;;;;;;;1.75;52.92;100168.79;117263;1182;24148;-54
2022/01/21 04:52:37;;;;;;;5.10;2.00;;;;;;;1.69;53.01;100168.66;117280;1185;21895;-60
2022/01/21 04:55:06;;;;;;;5.40;2.20;;;;;;;1.60;53.09;100169.67;117162;1183;21854;-54
2022/01/21 04:57:35;;;;;;;3.20;1.90;;;;;;;1.56;53.01;100177.38;117317;1183;24175;-54
2022/01/21 05:00:05;;;;;;;6.50;1.80;;;;;;;1.53;53.06;100180.26;117412;1183;22649;-54
2022/01/21 05:02:35;;;;;;;6.20;2.00;;;;;;;1.56;52.86;100185.34;117225;1186;23252;-54
2022/01/21 05:05:04;;;;;;;5.20;2.50;;;;;;;1.55;52.99;100187.21;117279;1182;22619;-59
2022/01/21 05:07:35;;;;;;;4.30;2.20;;;;;;;1.54;53.11;100191.70;117108;1187;22667;-55
2022/01/21 05:10:05;;;;;;;9.00;3.50;;;;;;;1.56;52.86;100187.08;117119;1182;23445;-59
2022/01/21 05:12:33;;;;;;;6.30;3.20;;;;;;;1.58;52.90;100186.25;117240;1180;21866;-53
2022/01/21 05:15:11;;;;;;;5.60;2.50;;;;;;;1.57;53.08;100191.23;117222;1182;24173;-54
2022/01/21 05:17:45;;;;;;;5.50;2.30;;;;;;;1.55;52.89;100190.17;117301;1181;23442;-54
2022/01/21 05:20:14;;;;;;;6.00;2.30;;;;;;;1.60;52.80;100196.15;117334;1182;22619;-53
2022/01/21 05:22:42;;;;;;;4.30;2.30;;;;;;;1.59;52.75;100211.86;117301;1185;21858;-53
2022/01/21 05:25:16;;;;;;;5.50;2.30;;;;;;;1.58;52.72;100216.69;117306;1178;24155;-60
2022/01/21 05:27:46;;;;;;;8.10;2.70;;;;;;;1.58;52.81;100224.64;117280;1181;21867;-64
2022/01/21 05:30:15;;;;;;;7.50;3.20;;;;;;;1.54;52.72;100224.39;117294;1182;24173;-60
2022/01/21 05:32:43;;;;;;;5.80;3.00;;;;;;;1.51;52.76;100223.11;117259;1181;21859;-60
2022/01/21 05:35:12;;;;;;;6.00;2.80;;;;;;;1.50;52.80;100224.12;117321;1185;21855;-51
2022/01/21 05:37:40;;;;;;;10.20;3.70;;;;;;;1.48;52.84;100229.61;117418;1185;22719;-64
2022/01/21 05:40:13;;;;;;;6.80;3.70;;;;;;;1.45;52.93;100238.72;117330;1182;23577;-53
2022/01/21 05:42:41;;;;;;;6.10;3.40;;;;;;;1.44;52.65;100244.90;117300;1178;21859;-53
2022/01/21 05:47:57;;;;;;;9.10;3.90;;;;;;;1.38;52.58;100253.59;117288;1181;23482;-59
2022/01/21 05:50:25;;;;;;;12.40;3.90;;;;;;;1.34;52.56;100253.69;117307;1176;21855;-59
2022/01/21 05:52:55;;;;;;;10.40;4.30;;;;;;;1.32;52.70;100246.20;117308;1181;23455;-54
2022/01/21 05:55:24;;;;;;;12.10;6.10;;;;;;;1.30;52.64;100246.85;117275;1184;22628;-53
2022/01/21 05:57:52;;;;;;;24.30;9.60;;;;;;;1.22;52.64;100254.10;117350;1182;23712;-53
2022/01/21 06:00:21;;;;;;;17.70;6.40;;;;;;;1.21;52.57;100263.76;117341;1178;21864;-60
2022/01/21 06:02:49;;;;;;;11.40;5.40;;;;;;;1.19;52.72;100268.36;116963;1181;22850;-60
2022/01/21 06:05:18;;;;;;;10.00;6.00;;;;;;;1.17;52.71;100276.27;117415;1183;22554;-53
2022/01/21 06:07:46;;;;;;;9.30;5.00;;;;;;;1.16;52.75;100279.17;117307;1185;24196;-53
2022/01/21 06:10:15;;;;;;;7.60;4.30;;;;;;;1.15;52.74;100278.81;117343;1184;23474;-59
2022/01/21 06:12:43;;;;;;;12.70;6.20;;;;;;;1.18;52.92;100291.15;117075;1180;22957;-59
2022/01/21 06:15:12;;;;;;;9.70;5.00;;;;;;;1.20;52.72;100291.20;117335;1183;23548;-60
2022/01/21 06:17:40;;;;;;;9.30;4.80;;;;;;;1.21;53.06;100295.71;117299;1186;22922;-53
2022/01/21 06:20:13;;;;;;;18.40;7.80;;;;;;;1.20;52.80;100306.77;117298;1185;23558;-54
2022/01/21 06:22:42;;;;;;;15.70;7.50;;;;;;;1.20;52.96;100312.11;117031;1178;23474;-59
2022/01/21 06:25:10;;;;;;;11.50;6.00;;;;;;;1.18;52.91;100312.61;117961;1185;21933;-60
2022/01/21 06:27:39;;;;;;;10.20;5.10;;;;;;;1.20;52.69;100321.80;119446;1181;21782;-59
2022/01/21 06:30:13;;;;;;;21.50;10.00;;;;;;;1.21;52.64;100321.66;117418;1184;22465;-60
2022/01/21 06:32:41;;;;;;;10.40;5.10;;;;;;;1.18;53.00;100317.26;117276;1186;23565;-60
2022/01/21 06:35:10;;;;;;;12.20;5.50;;;;;;;1.18;52.95;100322.44;117343;1185;21864;-53
2022/01/21 06:37:39;;;;;;;10.10;4.00;;;;;;;1.22;53.05;100323.57;117257;1186;21866;-60
2022/01/21 06:40:08;;;;;;;8.20;3.90;;;;;;;1.26;53.22;100329.21;117336;1185;22002;-60
2022/01/21 06:42:36;;;;;;;8.70;3.50;;;;;;;1.32;53.20;100333.34;117295;1185;22119;-60
2022/01/21 06:45:05;;;;;;;6.50;3.00;;;;;;;1.41;53.14;100338.92;117344;1182;21913;-54
2022/01/21 06:47:33;;;;;;;9.50;4.00;;;;;;;1.50;53.29;100348.29;117347;1182;22928;-60
2022/01/21 06:50:01;;;;;;;6.90;3.50;;;;;;;1.57;53.21;100340.51;117347;1185;22645;-61
2022/01/21 06:52:32;;;;;;;8.60;3.20;;;;;;;1.66;53.38;100333.79;117273;1184;22918;-61
2022/01/21 06:55:00;;;;;;;9.60;3.40;;;;;;;1.76;53.20;100333.16;117334;1185;23473;-53
2022/01/21 06:57:29;;;;;;;8.60;3.30;;;;;;;1.86;53.51;100332.52;117316;1185;21941;-60
2022/01/21 06:59:57;;;;;;;7.70;2.90;;;;;;;1.98;53.42;100333.28;117327;1181;22914;-60
2022/01/21 07:02:26;;;;;;;9.50;3.20;;;;;;;2.08;53.55;100333.00;117238;1178;23450;-60
2022/01/21 07:04:54;;;;;;;10.40;2.80;;;;;;;2.20;53.77;100333.08;117302;1184;21858;-54
2022/01/21 07:07:22;;;;;;;6.70;3.20;;;;;;;2.28;53.50;100331.33;117079;1178;23451;-55
2022/01/21 07:09:51;;;;;;;8.70;3.10;;;;;;;2.31;53.31;100335.04;117239;1181;23487;-53
2022/01/21 07:12:39;;;;;;;7.60;2.80;;;;;;;2.26;53.20;100337.34;117269;1184;22926;-53
2022/01/21 07:15:08;;;;;;;8.20;3.10;;;;;;;2.19;53.27;100344.14;117351;1185;22312;-54
2022/01/21 07:17:36;;;;;;;10.00;2.20;;;;;;;2.16;53.20;100350.99;117297;1183;22625;-54
2022/01/21 07:20:06;;;;;;;5.70;2.40;;;;;;;2.13;53.09;100351.61;117317;1185;23038;-55
2022/01/21 07:22:34;;;;;;;8.00;2.80;;;;;;;2.13;53.31;100361.33;117347;1185;21894;-59
2022/01/21 07:25:03;;;;;;;7.40;2.50;;;;;;;2.14;53.33;100362.38;117322;1176;23471;-60
2022/01/21 07:27:32;;;;;;;9.20;1.90;;;;;;;2.15;53.29;100354.09;117264;1182;23478;-54
2022/01/21 07:30:02;;;;;;;7.00;2.50;;;;;;;2.16;53.30;100355.34;117280;1185;21854;-54
2022/01/21 07:32:30;;;;;;;5.30;2.40;;;;;;;2.21;53.46;100355.95;117193;1185;21859;-59
2022/01/21 07:34:59;;;;;;;8.30;2.50;;;;;;;2.32;53.56;100352.54;117230;1184;21864;-60
2022/01/21 07:37:27;;;;;;;5.20;2.20;;;;;;;2.44;53.67;100358.32;117292;1186;23455;-53
2022/01/21 07:39:56;;;;;;;9.50;2.40;;;;;;;2.58;53.56;100355.16;117250;1182;23548;-60
2022/01/21 07:42:25;;;;;;;4.90;1.70;;;;;;;2.70;53.54;100357.96;117057;1187;22727;-59
2022/01/21 07:44:53;;;;;;;7.90;2.60;;;;;;;2.81;53.48;100361.15;117299;1185;22925;-60
2022/01/21 07:47:21;;;;;;;7.40;1.80;;;;;;;2.88;53.44;100364.55;117333;1185;21857;-60
2022/01/21 07:49:50;;;;;;;6.90;2.50;;;;;;;2.93;53.42;100370.55;117308;1184;23478;-59
2022/01/21 07:52:19;;;;;;;7.30;2.20;;;;;;;3.00;53.37;100373.80;117308;1182;22504;-60
2022/01/21 07:54:47;;;;;;;7.60;2.20;;;;;;;3.05;53.23;100375.29;117354;1182;23452;-60
2022/01/21 07:57:15;;;;;;;5.20;1.70;;;;;;;3.17;53.31;100372.89;117230;1184;23665;-60
2022/01/21 07:59:43;;;;;;;8.20;1.80;;;;;;;3.28;53.45;100368.75;117301;1184;23459;-55
2022/01/21 08:02:12;;;;;;;6.90;1.90;;;;;;;3.33;53.20;100363.27;117417;1185;21852;-59
2022/01/21 08:04:41;;;;;;;4.00;1.80;;;;;;;3.29;52.99;100361.83;117184;1185;23640;-54
2022/01/21 08:07:10;;;;;;;6.60;1.70;;;;;;;3.22;52.89;100364.98;117316;1181;24192;-60
2022/01/21 08:09:38;;;;;;;5.80;2.10;;;;;;;3.15;52.94;100372.16;117320;1179;22971;-60
2022/01/21 08:12:08;;;;;;;5.80;2.00;;;;;;;3.12;52.89;100364.80;117336;1184;23580;-60
2022/01/21 08:14:36;;;;;;;4.60;1.90;;;;;;;3.15;53.20;100358.98;117325;1178;21852;-53
2022/01/21 08:17:06;;;;;;;3.70;1.40;;;;;;;3.25;53.26;100358.30;117338;1176;23565;-61
2022/01/21 08:19:34;;;;;;;5.10;1.80;;;;;;;3.34;53.17;100363.29;117390;1185;23636;-60
2022/01/21 08:22:04;;;;;;;6.50;1.80;;;;;;;3.37;53.18;100365.58;117323;1185;23899;-54
2022/01/21 08:24:33;;;;;;;6.10;1.50;;;;;;;3.43;52.85;100363.27;119396;1184;21781;-61
2022/01/21 08:27:02;;;;;;;5.10;1.70;;;;;;;3.48;52.71;100372.20;119444;1181;22424;-61
2022/01/21 08:29:34;;;;;;;7.30;1.70;;;;;;;3.49;52.47;100378.29;119436;1185;22126;-55
2022/01/21 08:32:03;;;;;;;3.40;1.20;;;;;;;3.45;52.56;100384.81;119409;1184;22245;-55
2022/01/21 08:34:34;;;;;;;4.30;1.10;;;;;;;3.38;52.40;100374.81;119366;1183;21782;-61
2022/01/21 08:37:03;;;;;;;5.40;1.70;;;;;;;3.29;52.41;100378.82;119372;1184;21788;-61
2022/01/21 08:39:32;;;;;;;4.30;1.50;;;;;;;3.26;52.58;100374.78;117347;1184;22966;-54
2022/01/21 08:42:00;;;;;;;4.30;1.40;;;;;;;3.28;52.79;100370.14;119402;1185;22080;-59
2022/01/21 08:44:28;;;;;;;4.20;1.40;;;;;;;3.42;52.81;100366.89;119406;1184;22324;-61
2022/01/21 08:46:56;;;;;;;5.00;1.60;;;;;;;3.63;52.49;100366.02;118420;1186;22954;-60
2022/01/21 08:49:40;;;;;;;5.40;1.30;;;;;;;3.60;52.64;100369.61;118530;1186;22925;-54
2022/01/21 08:52:18;;;;;;;7.60;2.00;;;;;;;3.72;52.78;100375.88;119144;1178;21814;-56
2022/01/21 08:54:47;;;;;;;6.20;2.10;;;;;;;3.88;52.87;100370.39;119360;1176;21777;-55
2022/01/21 08:57:15;;;;;;;6.40;1.90;;;;;;;4.08;53.11;100375.18;117900;1186;21863;-60
2022/01/21 08:59:44;;;;;;;7.70;1.80;;;;;;;4.37;52.78;100371.59;117291;1186;21861;-60
2022/01/21 09:02:13;;;;;;;6.40;1.20;;;;;;;4.51;52.50;100367.60;117057;1184;21857;-54
2022/01/21 09:04:41;;;;;;;4.30;1.30;;;;;;;4.53;52.08;100364.32;117330;1185;23579;-59
2022/01/21 09:07:10;;;;;;;5.00;1.30;;;;;;;4.57;52.18;100349.41;117282;1180;23704;-58
2022/01/21 09:09:38;;;;;;;2.90;1.70;;;;;;;4.65;52.31;100345.16;117278;1180;22880;-60
2022/01/21 09:12:07;;;;;;;6.80;1.60;;;;;;;4.70;52.43;100336.34;117280;1181;23021;-60
2022/01/21 09:14:35;;;;;;;6.50;1.50;;;;;;;4.70;52.38;100330.96;117254;1178;21858;-53
2022/01/21 09:17:04;;;;;;;8.90;2.20;;;;;;;4.82;52.38;100321.36;117374;1181;22926;-61
2022/01/21 09:19:32;;;;;;;5.90;2.30;;;;;;;4.83;52.07;100329.55;117276;1186;21949;-54
2022/01/21 09:22:02;;;;;;;7.90;1.80;;;;;;;4.82;52.03;100324.83;117123;1187;23617;-59
2022/01/21 09:24:33;;;;;;;5.40;1.70;;;;;;;4.83;52.23;100319.63;117237;1186;21858;-54
2022/01/21 09:27:02;;;;;;;4.50;1.60;;;;;;;4.86;52.25;100316.52;117284;1182;23353;-60
2022/01/21 09:29:34;;;;;;;4.20;1.40;;;;;;;4.93;52.33;100318.52;117271;1186;22946;-60
2022/01/21 09:32:04;;;;;;;5.70;1.40;;;;;;;4.96;52.08;100317.15;117057;1184;21863;-60
2022/01/21 09:34:32;;;;;;;7.10;1.90;;;;;;;4.89;51.87;100322.11;117211;1183;22930;-61
2022/01/21 09:37:01;;;;;;;7.60;1.90;;;;;;;4.82;51.97;100315.63;117303;1182;21993;-55
2022/01/21 09:39:30;;;;;;;4.10;1.40;;;;;;;4.80;51.85;100325.34;117017;1180;23712;-53
2022/01/21 09:42:01;;;;;;;6.90;2.10;;;;;;;4.80;51.96;100318.04;117032;1186;21863;-54
2022/01/21 09:44:30;;;;;;;5.40;2.00;;;;;;;4.81;51.87;100313.36;117151;1185;22873;-54
2022/01/21 09:47:01;;;;;;;4.50;1.50;;;;;;;4.80;52.04;100307.80;117029;1184;24155;-54
2022/01/21 09:49:30;;;;;;;4.50;1.20;;;;;;;4.76;51.97;100312.42;117056;1179;21858;-54
2022/01/21 09:52:09;;;;;;;7.60;1.60;;;;;;;4.70;51.84;100311.30;117312;1178;23100;-54
2022/01/21 09:54:45;;;;;;;5.00;1.70;;;;;;;4.67;51.95;100312.32;117089;1186;21901;-61
2022/01/21 09:57:20;;;;;;;4.20;1.60;;;;;;;4.67;51.79;100312.48;117312;1182;22794;-54
2022/01/21 09:59:52;;;;;;;5.60;1.80;;;;;;;4.67;51.73;100305.02;117035;1183;22860;-55
2022/01/21 10:02:21;;;;;;;5.90;1.50;;;;;;;4.67;51.75;100301.20;117265;1186;21858;-61
2022/01/21 10:04:51;;;;;;;6.90;2.00;;;;;;;4.76;51.69;100301.13;117005;1182;21916;-55
2022/01/21 10:07:20;;;;;;;7.00;1.50;;;;;;;4.90;51.83;100300.73;117318;1183;24209;-55
2022/01/21 10:09:49;;;;;;;5.30;1.60;;;;;;;5.00;52.05;100291.98;117253;1182;22932;-61
2022/01/21 10:12:18;;;;;;;3.60;1.60;;;;;;;5.11;51.92;100296.77;117055;1185;21857;-61
2022/01/21 10:14:47;;;;;;;7.50;1.90;;;;;;;5.23;51.75;100289.39;117236;1182;24168;-55
2022/01/21 10:17:25;;;;;;;4.00;1.30;;;;;;;5.36;51.36;100273.29;117247;1182;22720;-55
2022/01/21 10:19:54;;;;;;;3.90;1.30;;;;;;;5.41;51.36;100271.25;117121;1185;23729;-55
2022/01/21 10:22:26;;;;;;;5.20;2.10;;;;;;;5.45;51.40;100261.52;116932;1187;22923;-55
2022/01/21 10:25:03;;;;;;;8.00;1.90;;;;;;;5.47;51.44;100262.76;117211;1184;22472;-55
2022/01/21 10:27:35;;;;;;;4.20;1.30;;;;;;;5.40;51.41;100269.15;117253;1178;22938;-55
2022/01/21 10:30:28;;;;;;;5.00;1.50;;;;;;;5.19;51.33;100274.74;117039;1182;22168;-61
2022/01/21 10:32:56;;;;;;;5.70;2.40;;;;;;;5.14;51.40;100273.46;117273;1180;22954;-61
2022/01/21 10:35:35;;;;;;;4.80;1.50;;;;;;;5.24;51.90;100267.48;117249;1181;22059;-61
2022/01/21 10:38:28;;;;;;;2.90;1.40;;;;;;;5.39;51.71;100264.61;117232;1181;23564;-62
2022/01/21 10:41:12;;;;;;;5.70;1.70;;;;;;;5.49;52.03;100260.86;117236;1183;22444;-54
2022/01/21 10:43:41;;;;;;;4.80;1.20;;;;;;;5.71;51.84;100250.89;117197;1183;22847;-54
2022/01/21 10:46:15;;;;;;;3.80;1.20;;;;;;;5.88;51.79;100252.55;117271;1181;22710;-54
2022/01/21 10:49:06;;;;;;;6.10;1.70;;;;;;;5.96;51.58;100243.19;117266;1185;24395;-62
2022/01/21 10:51:40;;;;;;;4.60;2.00;;;;;;;6.07;51.49;100235.59;116993;1184;22935;-61
2022/01/21 10:54:26;;;;;;;3.10;1.00;;;;;;;6.19;51.47;100237.39;117054;1186;22352;-61
2022/01/21 10:57:05;;;;;;;6.90;1.70;;;;;;;6.14;51.49;100242.94;117303;1183;21857;-61
2022/01/21 10:59:51;;;;;;;4.60;1.40;;;;;;;6.36;51.01;100242.14;117299;1182;22884;-61
2022/01/21 11:02:34;;;;;;;3.90;1.40;;;;;;;6.42;51.26;100243.73;117299;1185;23441;-62
2022/01/21 11:05:14;;;;;;;5.90;3.30;;;;;;;6.37;51.11;100242.48;117306;1185;21842;-55
2022/01/21 11:07:56;;;;;;;5.70;3.30;;;;;;;6.22;51.33;100243.13;117249;1185;22002;-61
2022/01/21 11:10:39;;;;;;;9.30;5.20;;;;;;;6.40;51.34;100236.39;117453;1185;21871;-61
2022/01/21 11:13:29;;;;;;;17.10;9.40;;;;;;;6.49;50.99;100235.38;117157;1185;21925;-62
2022/01/21 11:16:04;;;;;;;8.20;3.70;;;;;;;6.49;51.06;100231.73;117287;1181;22925;-61
2022/01/21 11:19:05;;;;;;;10.00;5.80;;;;;;;6.67;50.91;100228.61;117268;1184;23459;-61
2022/01/21 11:21:54;;;;;;;9.50;4.50;;;;;;;6.78;51.14;100229.31;117384;1183;22094;-55
2022/01/21 11:24:24;;;;;;;9.60;5.60;;;;;;;6.73;51.28;100237.15;117058;1186;21868;-62
2022/01/21 11:27:07;;;;;;;4.30;2.10;;;;;;;6.79;51.05;100234.73;117381;1182;21865;-61
2022/01/21 11:29:36;;;;;;;5.00;2.60;;;;;;;6.80;50.77;100230.70;117316;1180;22917;-55
2022/01/21 11:32:04;;;;;;;6.40;2.30;;;;;;;6.80;50.78;100229.67;117348;1185;22084;-61
2022/01/21 11:34:34;;;;;;;6.40;2.60;;;;;;;6.87;50.72;100220.77;117070;1180;22110;-61
2022/01/21 11:37:03;;;;;;;5.70;2.80;;;;;;;6.91;50.70;100220.77;117302;1185;22945;-55
2022/01/21 11:39:32;;;;;;;3.60;1.30;;;;;;;7.05;50.55;100215.55;117104;1186;21859;-61
2022/01/21 11:42:03;;;;;;;6.60;3.50;;;;;;;7.18;50.33;100209.95;117331;1182;21872;-62
2022/01/21 11:44:33;;;;;;;7.90;4.20;;;;;;;7.01;50.92;100210.31;117207;1185;21871;-55
2022/01/21 11:47:17;;;;;;;7.20;2.40;;;;;;;6.95;50.69;100209.79;117296;1181;22806;-61
2022/01/21 11:49:57;;;;;;;7.60;4.10;;;;;;;6.90;50.75;100216.58;117320;1182;22093;-62
2022/01/21 11:52:26;;;;;;;4.60;1.80;;;;;;;6.83;50.68;100205.42;117351;1182;22623;-57
2022/01/21 11:54:55;;;;;;;4.40;1.50;;;;;;;6.79;50.64;100214.32;117262;1183;22915;-55
2022/01/21 11:57:28;;;;;;;4.50;1.40;;;;;;;6.72;50.45;100212.73;117179;1178;21880;-54
2022/01/21 12:00:06;;;;;;;6.00;1.70;;;;;;;6.69;50.51;100218.67;117447;1185;23455;-55
2022/01/21 12:02:35;;;;;;;9.20;6.10;;;;;;;6.67;50.50;100216.39;117254;1185;21897;-61
2022/01/21 12:05:13;;;;;;;9.50;3.40;;;;;;;6.67;50.32;100207.69;117272;1178;24236;-55
2022/01/21 12:07:48;;;;;;;4.70;2.30;;;;;;;6.90;50.27;100201.94;117245;1185;22922;-62
2022/01/21 12:10:18;;;;;;;5.40;2.50;;;;;;;6.89;50.28;100203.51;117307;1182;21879;-62
2022/01/21 12:21:35;;;;;;;5.50;1.60;;;;;;;7.02;49.55;100208.38;117122;1185;21956;-63
2022/01/21 12:24:05;;;;;;;5.90;1.50;;;;;;;6.75;49.90;100213.09;117273;1178;22968;-56
2022/01/21 12:26:34;;;;;;;5.60;2.30;;;;;;;6.69;49.78;100210.13;117265;1185;21873;-55
2022/01/21 12:29:02;;;;;;;5.20;2.10;;;;;;;6.66;49.66;100210.64;117350;1182;22652;-56
2022/01/21 12:31:31;;;;;;;4.20;1.70;;;;;;;6.67;49.81;100213.59;117275;1185;24162;-62